Time;durP1;ratioP1;P1;durP2;ratioP2;P2;SDS_P1;SDS_P2;PMS_P1;PMS_P2;Temp;Humidity;BMP_temperature;BMP_pressure;BME280_temperature;BME280_humidity;BME280_pressure;Samples;Min_cycle;Max_cycle;Signal;HPM_P1;HPM_P2
2022/08/29 00:02:33;;;;;;;23.83;21.25;;;;;;;20.51;98.69;98726.88;2260497;78;20977;-83
2022/08/29 00:05:33;;;;;;;25.45;22.22;;;;;;;20.61;99.54;98721.72;2281623;78;20946;-85
2022/08/29 00:08:34;;;;;;;35.20;31.20;;;;;;;20.47;100.00;98722.13;2281661;78;20962;-84
2022/08/29 00:11:34;;;;;;;24.75;22.07;;;;;;;20.66;100.00;98726.42;2281663;78;20934;-85
2022/08/29 00:14:34;;;;;;;24.37;20.20;;;;;;;20.60;98.08;98727.94;2281586;78;20968;-84
2022/08/29 00:17:35;;;;;;;25.23;19.20;;;;;;;20.51;99.42;98728.21;2281084;78;21353;-84
2022/08/29 00:20:35;;;;;;;20.12;18.12;;;;;;;20.42;98.60;98726.70;2281523;78;20954;-82
2022/08/29 00:23:36;;;;;;;20.62;18.62;;;;;;;20.31;99.58;98726.98;2281546;78;20938;-84
2022/08/29 00:26:36;;;;;;;23.75;18.98;;;;;;;20.31;99.66;98726.12;2281680;78;20990;-84
2022/08/29 00:29:36;;;;;;;20.48;18.40;;;;;;;20.23;98.93;98728.13;2281850;78;20945;-84
2022/08/29 00:32:37;;;;;;;20.90;18.62;;;;;;;20.14;99.98;98722.63;2281668;78;20942;-84
2022/08/29 00:35:37;;;;;;;25.32;21.62;;;;;;;20.09;100.00;98716.59;2281617;78;20965;-83
2022/08/29 00:38:38;;;;;;;23.57;21.00;;;;;;;19.91;100.00;98723.25;2281610;78;20968;-84
2022/08/29 00:41:38;;;;;;;23.07;19.75;;;;;;;19.73;100.00;98723.75;2281624;78;20934;-83
2022/08/29 00:44:38;;;;;;;23.50;17.75;;;;;;;19.58;100.00;98723.70;2281022;77;21014;-83
2022/08/29 00:47:39;;;;;;;20.62;18.48;;;;;;;19.53;100.00;98723.41;2281726;78;20938;-83
2022/08/29 00:50:39;;;;;;;19.73;17.77;;;;;;;19.49;100.00;98725.23;2281681;78;20898;-82
2022/08/29 00:53:40;;;;;;;20.70;17.80;;;;;;;19.38;100.00;98729.48;2281581;78;20913;-82
2022/08/29 00:56:40;;;;;;;21.50;18.65;;;;;;;19.32;100.00;98726.12;2281713;78;20933;-83
2022/08/29 00:59:40;;;;;;;21.55;18.82;;;;;;;19.41;100.00;98725.43;2281573;78;21334;-83
2022/08/29 01:02:41;;;;;;;22.87;20.35;;;;;;;19.44;100.00;98729.77;2281712;78;20942;-83
2022/08/29 01:05:41;;;;;;;23.02;20.02;;;;;;;19.47;100.00;98733.67;2281602;78;20973;-83
2022/08/29 01:08:42;;;;;;;23.22;20.82;;;;;;;19.37;100.00;98733.48;2282044;78;21337;-84
2022/08/29 01:15:01;;;;;;;21.02;16.93;;;;;;;19.35;100.00;98735.30;2281137;78;20970;-83
2022/08/29 01:18:01;;;;;;;21.25;18.52;;;;;;;19.26;100.00;98729.79;2281807;78;21294;-83
2022/08/29 01:21:02;;;;;;;18.50;16.65;;;;;;;19.18;100.00;98735.72;2281570;78;21340;-84
2022/08/29 01:24:03;;;;;;;20.23;17.80;;;;;;;19.17;100.00;98739.27;2281363;78;20977;-82
2022/08/29 01:27:02;;;;;;;18.98;17.05;;;;;;;19.23;100.00;98734.28;2280897;78;21032;-83
2022/08/29 01:30:03;;;;;;;21.82;17.98;;;;;;;19.20;100.00;98747.59;2280589;78;21307;-83
2022/08/29 01:33:03;;;;;;;18.25;16.40;;;;;;;19.08;100.00;98738.17;2281429;78;21293;-83
2022/08/29 01:36:04;;;;;;;19.87;17.87;;;;;;;19.11;100.00;98743.39;2281367;78;20906;-84
2022/08/29 01:39:04;;;;;;;20.57;18.05;;;;;;;19.00;100.00;98748.04;2281209;78;20927;-83
2022/08/29 01:42:04;;;;;;;18.70;16.73;;;;;;;18.91;100.00;98746.48;2281352;78;21009;-83
2022/08/29 01:45:05;;;;;;;21.40;18.15;;;;;;;18.90;100.00;98744.73;2249428;77;21037;-83
2022/08/29 01:48:05;;;;;;;20.00;17.90;;;;;;;18.92;100.00;98743.37;2249483;78;20955;-83
2022/08/29 01:51:06;;;;;;;18.27;16.57;;;;;;;18.89;100.00;98747.42;2249169;79;21356;-84
2022/08/29 01:54:06;;;;;;;20.77;16.15;;;;;;;19.00;100.00;98749.36;2249062;78;20964;-84
2022/08/29 01:57:06;;;;;;;18.40;16.48;;;;;;;19.07;100.00;98751.86;2249270;78;20956;-84
2022/08/29 02:00:07;;;;;;;19.37;15.95;;;;;;;19.05;100.00;98750.98;2249369;78;20972;-83
2022/08/29 02:03:07;;;;;;;19.02;16.52;;;;;;;19.24;100.00;98751.91;2249040;78;21241;-82
2022/08/29 02:06:09;;;;;;;17.40;15.43;;;;;;;19.24;100.00;98755.42;2249233;79;20911;-83
2022/08/29 02:09:08;;;;;;;17.40;15.72;;;;;;;19.21;100.00;98754.17;2248622;78;20950;-82
2022/08/29 02:12:09;;;;;;;17.60;15.78;;;;;;;19.19;100.00;98753.80;2249268;79;21383;-84
2022/08/29 02:15:09;;;;;;;18.20;16.00;;;;;;;19.21;100.00;98760.78;2249230;78;21352;-83
2022/08/29 02:18:09;;;;;;;17.15;15.32;;;;;;;19.09;100.00;98759.76;2249312;78;20971;-85
2022/08/29 02:21:10;;;;;;;18.20;16.27;;;;;;;19.02;100.00;98752.38;2248419;79;21324;-84
2022/08/29 02:24:10;;;;;;;17.75;14.23;;;;;;;19.04;100.00;98752.34;2248434;79;20916;-86
2022/08/29 02:27:11;;;;;;;15.25;12.78;;;;;;;18.97;100.00;98753.41;2248689;79;20968;-85
2022/08/29 02:30:13;;;;;;;13.18;11.70;;;;;;;18.91;100.00;98754.86;2248758;78;21296;-85
2022/08/29 02:33:17;;;;;;;13.30;12.00;;;;;;;18.84;100.00;98758.10;2248660;79;21366;-85
2022/08/29 02:36:17;;;;;;;15.80;14.18;;;;;;;18.74;100.00;98759.22;2222146;79;20940;-85
2022/08/29 02:39:18;;;;;;;16.42;14.83;;;;;;;18.68;100.00;98758.03;2248888;79;20932;-84
2022/08/29 02:42:17;;;;;;;15.35;13.85;;;;;;;18.66;100.00;98758.52;2248705;78;21695;-79
2022/08/29 02:45:18;;;;;;;13.65;12.30;;;;;;;18.68;100.00;98756.70;2279138;77;20989;-81
2022/08/29 02:48:18;;;;;;;13.48;12.07;;;;;;;18.67;100.00;98758.48;2281021;78;20958;-83
2022/08/29 02:51:19;;;;;;;13.83;12.50;;;;;;;18.61;100.00;98758.61;2281250;78;21005;-85
2022/08/29 02:54:19;;;;;;;12.47;11.18;;;;;;;18.69;100.00;98758.45;2281656;78;20980;-85
2022/08/29 02:57:19;;;;;;;11.00;10.03;;;;;;;18.80;100.00;98760.40;2281348;78;20953;-85
2022/08/29 03:00:20;;;;;;;10.85;9.85;;;;;;;18.70;100.00;98762.83;2281316;78;20883;-85
2022/08/29 03:03:21;;;;;;;12.28;11.03;;;;;;;18.64;100.00;98763.84;2282367;78;20942;-85
2022/08/29 03:06:23;;;;;;;15.68;13.70;;;;;;;18.56;100.00;98772.80;2282296;78;20950;-85
2022/08/29 03:09:24;;;;;;;18.50;16.37;;;;;;;18.44;100.00;98772.16;2282531;78;21302;-85
2022/08/29 03:12:24;;;;;;;25.82;18.70;;;;;;;18.40;100.00;98776.22;2282351;78;20961;-86
2022/08/29 03:15:25;;;;;;;24.32;20.43;;;;;;;18.35;100.00;98777.63;2281933;78;21330;-85
2022/08/29 03:18:27;;;;;;;26.85;21.05;;;;;;;18.30;100.00;98787.88;2261122;78;21024;-81
2022/08/29 03:21:27;;;;;;;34.73;23.77;;;;;;;18.30;100.00;98790.07;2281090;78;20957;-80
2022/08/29 03:24:30;;;;;;;35.20;25.52;;;;;;;18.27;100.00;98787.94;2260226;78;20970;-84
2022/08/29 03:27:30;;;;;;;34.38;26.45;;;;;;;18.21;100.00;98798.18;2281884;78;20954;-86
2022/08/29 03:30:30;;;;;;;34.67;27.40;;;;;;;18.19;100.00;98801.72;2281732;78;21334;-84
2022/08/29 03:33:31;;;;;;;33.33;26.37;;;;;;;18.14;100.00;98802.68;2281762;78;20962;-84
2022/08/29 03:36:31;;;;;;;34.60;26.40;;;;;;;18.13;100.00;98804.03;2281834;78;20946;-84
2022/08/29 03:39:32;;;;;;;34.27;25.88;;;;;;;18.17;100.00;98810.13;2281726;78;20929;-83
2022/08/29 03:42:32;;;;;;;31.23;23.57;;;;;;;18.16;100.00;98810.58;2282004;78;20926;-83
2022/08/29 03:45:32;;;;;;;27.58;22.00;;;;;;;18.13;100.00;98815.47;2290244;77;21080;-84
2022/08/29 03:48:33;;;;;;;26.95;21.57;;;;;;;18.12;100.00;98820.33;2290727;78;20975;-81
2022/08/29 03:51:33;;;;;;;22.60;19.87;;;;;;;18.12;100.00;98827.37;2291166;78;20983;-83
2022/08/29 03:54:34;;;;;;;22.98;20.52;;;;;;;18.17;100.00;98828.17;2291367;78;20912;-85
2022/08/29 03:57:34;;;;;;;19.40;17.37;;;;;;;18.18;100.00;98831.23;2291199;78;20936;-84
2022/08/29 04:00:34;;;;;;;20.85;17.65;;;;;;;18.17;100.00;98832.58;2290737;78;20924;-84
2022/08/29 04:03:35;;;;;;;20.60;17.57;;;;;;;18.14;100.00;98833.06;2291256;78;20928;-84
2022/08/29 04:06:35;;;;;;;21.82;18.42;;;;;;;18.11;100.00;98832.24;2290750;78;20924;-83
2022/08/29 04:09:36;;;;;;;20.60;16.12;;;;;;;18.11;100.00;98834.88;2290492;78;20897;-84
2022/08/29 04:12:36;;;;;;;18.87;16.23;;;;;;;18.07;100.00;98841.13;2290836;78;20951;-83
2022/08/29 04:15:36;;;;;;;18.05;16.37;;;;;;;18.04;100.00;98841.18;2289709;78;21038;-84
2022/08/29 04:18:37;;;;;;;17.70;15.95;;;;;;;18.04;100.00;98839.86;2290019;78;21360;-83
2022/08/29 04:21:37;;;;;;;16.77;15.00;;;;;;;18.12;100.00;98849.84;2290153;78;20928;-84
2022/08/29 04:24:38;;;;;;;17.52;15.63;;;;;;;18.22;100.00;98851.89;2290338;78;20975;-84
2022/08/29 04:27:38;;;;;;;17.32;15.60;;;;;;;18.17;100.00;98849.30;2290095;78;20955;-84
2022/08/29 04:30:38;;;;;;;21.05;17.60;;;;;;;18.18;100.00;98860.28;2289898;78;21653;-84
2022/08/29 04:33:39;;;;;;;19.90;17.87;;;;;;;18.17;100.00;98862.51;2290505;78;20991;-84
2022/08/29 04:36:40;;;;;;;21.48;17.50;;;;;;;18.13;100.00;98866.11;2290462;78;20924;-84
2022/08/29 04:39:40;;;;;;;21.12;18.92;;;;;;;18.13;100.00;98870.06;2290874;78;20987;-85
2022/08/29 04:42:40;;;;;;;22.50;18.52;;;;;;;18.15;100.00;98874.88;2290139;78;20940;-84
2022/08/29 04:45:41;;;;;;;20.92;18.02;;;;;;;18.13;100.00;98885.92;2250818;77;21027;-85
2022/08/29 04:48:41;;;;;;;20.68;18.12;;;;;;;18.09;100.00;98886.42;2247715;79;20960;-84
2022/08/29 04:51:41;;;;;;;21.25;17.30;;;;;;;18.07;100.00;98885.58;2248146;79;21370;-85
2022/08/29 04:54:42;;;;;;;25.00;21.12;;;;;;;18.10;100.00;98884.66;2247523;79;20959;-86
2022/08/29 04:57:42;;;;;;;32.08;25.77;;;;;;;18.26;100.00;98875.58;2247343;78;20939;-84
2022/08/29 05:00:43;;;;;;;36.13;27.05;;;;;;;18.24;100.00;98874.73;2248105;78;20960;-85
2022/08/29 05:03:43;;;;;;;36.42;29.23;;;;;;;18.22;100.00;98886.23;2248297;78;21304;-83
2022/08/29 05:06:43;;;;;;;36.60;31.77;;;;;;;18.13;100.00;98892.52;2248036;78;20944;-82
2022/08/29 05:09:44;;;;;;;49.00;33.30;;;;;;;18.16;100.00;98897.75;2248607;79;20964;-84
2022/08/29 05:12:44;;;;;;;45.10;35.88;;;;;;;18.04;100.00;98900.16;2247944;78;20908;-81
2022/08/29 05:15:45;;;;;;;49.80;39.03;;;;;;;17.94;100.00;98897.25;2247780;79;20971;-84
2022/08/29 05:18:45;;;;;;;53.73;39.30;;;;;;;17.90;100.00;98902.16;2247462;79;20912;-84
2022/08/29 05:21:46;;;;;;;50.00;40.75;;;;;;;17.88;100.00;98907.92;2247304;79;20876;-84
2022/08/29 05:24:48;;;;;;;51.45;41.95;;;;;;;17.85;100.00;98911.05;2222635;79;20955;-83
2022/08/29 05:27:48;;;;;;;49.75;40.88;;;;;;;17.87;100.00;98914.09;2246900;78;21023;-83
2022/08/29 05:30:49;;;;;;;49.60;37.45;;;;;;;17.91;100.00;98912.28;2247168;78;20951;-84
2022/08/29 05:33:49;;;;;;;49.15;39.15;;;;;;;17.94;100.00;98913.55;2247936;78;20929;-84
2022/08/29 05:36:49;;;;;;;44.35;38.13;;;;;;;17.90;100.00;98915.81;2248211;78;21636;-84
2022/08/29 05:39:50;;;;;;;40.33;35.92;;;;;;;17.92;100.00;98924.58;2247806;78;20892;-82
2022/08/29 05:42:50;;;;;;;42.73;33.50;;;;;;;17.99;100.00;98926.23;2247547;79;20916;-84
2022/08/29 05:45:51;;;;;;;37.53;33.08;;;;;;;17.95;100.00;98925.41;2284847;77;21001;-83
2022/08/29 05:48:51;;;;;;;34.92;27.52;;;;;;;17.97;100.00;98922.29;2288880;78;21380;-85
2022/08/29 05:51:52;;;;;;;33.98;26.77;;;;;;;18.03;100.00;98922.63;2289104;78;21002;-84
2022/08/29 05:54:52;;;;;;;32.15;26.17;;;;;;;18.11;100.00;98927.34;2288472;78;20967;-84
2022/08/29 05:57:53;;;;;;;28.00;25.37;;;;;;;18.22;100.00;98930.70;2288780;78;21675;-80
2022/08/29 06:00:53;;;;;;;33.20;26.57;;;;;;;18.29;100.00;98927.05;2288833;78;20955;-84
2022/08/29 06:03:53;;;;;;;31.33;27.98;;;;;;;18.34;100.00;98933.57;2289036;78;20981;-84
2022/08/29 06:06:54;;;;;;;27.85;24.67;;;;;;;18.42;100.00;98933.86;2288550;78;20936;-83
2022/08/29 06:09:54;;;;;;;27.70;24.87;;;;;;;18.41;100.00;98936.53;2288593;78;20963;-83
2022/08/29 06:12:54;;;;;;;29.10;26.00;;;;;;;18.44;100.00;98942.63;2288899;78;21371;-82
2022/08/29 06:15:55;;;;;;;26.52;23.83;;;;;;;18.50;100.00;98948.25;2288957;78;21371;-82
2022/08/29 06:18:55;;;;;;;27.35;24.85;;;;;;;18.53;100.00;98952.16;2288844;78;20940;-83
2022/08/29 06:21:56;;;;;;;29.02;23.30;;;;;;;18.61;100.00;98954.66;2289316;78;20944;-83
2022/08/29 06:24:56;;;;;;;25.37;22.67;;;;;;;18.68;100.00;98960.28;2289172;78;21022;-80
2022/08/29 06:27:56;;;;;;;27.17;23.57;;;;;;;18.85;100.00;98969.22;2289090;78;20893;-84
2022/08/29 06:30:57;;;;;;;24.02;21.62;;;;;;;18.99;100.00;98971.14;2288813;78;20968;-83
2022/08/29 06:33:57;;;;;;;21.70;19.70;;;;;;;19.02;99.29;98969.75;2288814;78;20900;-84
2022/08/29 06:36:58;;;;;;;26.00;20.92;;;;;;;19.01;100.00;98970.20;2288599;78;20924;-86
2022/08/29 06:39:58;;;;;;;22.48;20.15;;;;;;;18.92;99.24;98970.39;2289426;78;20963;-84
2022/08/29 06:42:58;;;;;;;21.40;19.05;;;;;;;18.96;98.02;98977.36;2289161;78;20959;-83
2022/08/29 06:45:59;;;;;;;21.57;17.60;;;;;;;19.09;97.84;98978.02;2289538;78;20971;-84
2022/08/29 06:48:59;;;;;;;17.98;16.12;;;;;;;19.27;95.84;98994.84;2289876;78;20917;-84
2022/08/29 06:52:00;;;;;;;17.40;15.63;;;;;;;19.43;94.79;98994.06;2289683;78;20943;-83
2022/08/29 06:55:00;;;;;;;19.00;16.97;;;;;;;19.54;90.89;99011.08;2289484;78;21296;-84
2022/08/29 06:58:00;;;;;;;18.30;16.50;;;;;;;19.58;92.81;99007.00;2289393;78;20946;-85
2022/08/29 07:01:01;;;;;;;15.48;14.18;;;;;;;19.91;92.72;99010.67;2289452;78;20959;-84
2022/08/29 07:04:02;;;;;;;16.10;14.50;;;;;;;20.10;91.70;99011.14;2289198;78;20920;-84
2022/08/29 07:07:02;;;;;;;16.10;14.53;;;;;;;20.47;88.57;99011.59;2289508;78;20948;-81
2022/08/29 07:10:02;;;;;;;18.37;13.20;;;;;;;20.46;86.73;99021.78;2289147;78;21298;-83
2022/08/29 07:13:02;;;;;;;14.30;12.73;;;;;;;20.25;82.95;99025.34;2289192;78;20924;-83
2022/08/29 07:16:03;;;;;;;13.50;12.20;;;;;;;20.00;83.76;99029.48;2288697;78;21633;-82
2022/08/29 07:19:03;;;;;;;18.67;13.18;;;;;;;20.04;85.08;99035.13;2288525;78;20989;-81
2022/08/29 07:22:04;;;;;;;13.35;11.97;;;;;;;20.14;84.82;99034.02;2289321;78;20983;-84
2022/08/29 07:25:04;;;;;;;11.95;10.78;;;;;;;20.15;83.59;99032.23;2288910;78;20960;-83
2022/08/29 07:28:04;;;;;;;20.43;11.33;;;;;;;20.17;83.58;99029.09;2288550;78;20928;-80
2022/08/29 07:31:05;;;;;;;11.12;8.83;;;;;;;20.34;82.02;99034.40;2289136;78;21449;-82
2022/08/29 07:34:05;;;;;;;13.68;8.75;;;;;;;20.33;77.88;99037.95;2288012;78;20959;-84
2022/08/29 07:37:06;;;;;;;13.55;8.28;;;;;;;20.49;77.92;99031.86;2288393;78;21008;-80
2022/08/29 07:40:06;;;;;;;14.03;9.35;;;;;;;20.59;78.84;99035.14;2289132;78;20956;-86
2022/08/29 07:43:08;;;;;;;11.18;8.85;;;;;;;20.83;78.20;99039.84;2288745;78;21386;-84
2022/08/29 07:46:08;;;;;;;12.47;9.13;;;;;;;20.89;76.00;99041.46;2287970;77;21023;-85
2022/08/29 07:49:08;;;;;;;12.60;9.25;;;;;;;21.03;76.22;99040.64;2288847;78;20955;-84
2022/08/29 07:52:09;;;;;;;11.38;8.43;;;;;;;21.19;77.20;99039.75;2289945;78;21324;-84
2022/08/29 07:55:09;;;;;;;14.00;7.28;;;;;;;21.27;75.87;99033.35;2289724;78;20940;-84
2022/08/29 07:58:10;;;;;;;7.75;6.33;;;;;;;21.40;72.36;99040.51;2289942;78;20979;-85
2022/08/29 08:01:10;;;;;;;10.93;6.45;;;;;;;21.31;69.44;99043.42;2289439;78;21284;-84
2022/08/29 08:04:10;;;;;;;14.10;7.45;;;;;;;21.25;72.00;99048.91;2289349;78;20955;-85
2022/08/29 08:07:11;;;;;;;13.32;6.60;;;;;;;21.39;71.15;99040.55;2289818;78;20932;-85
2022/08/29 08:10:11;;;;;;;11.80;6.60;;;;;;;21.61;69.66;99045.19;2290089;78;21359;-85
2022/08/29 08:13:12;;;;;;;8.95;5.55;;;;;;;21.46;70.02;99052.28;2289409;78;20947;-85
2022/08/29 08:16:12;;;;;;;10.10;5.90;;;;;;;21.44;70.07;99046.14;2289481;78;21382;-85
2022/08/29 08:19:13;;;;;;;9.18;5.78;;;;;;;21.50;68.56;99048.63;2289924;78;20909;-87
2022/08/29 08:22:13;;;;;;;9.28;6.22;;;;;;;21.49;68.07;99053.52;2289897;78;20917;-85
2022/08/29 08:25:13;;;;;;;13.05;5.50;;;;;;;21.42;66.56;99054.61;2290071;78;21311;-86
2022/08/29 08:28:15;;;;;;;6.12;4.95;;;;;;;21.32;67.09;99066.41;2289607;78;20893;-84
2022/08/29 08:31:14;;;;;;;10.30;5.00;;;;;;;21.51;65.73;99057.45;2288469;78;20940;-85
2022/08/29 08:34:15;;;;;;;8.33;5.00;;;;;;;21.80;65.23;99063.27;2289030;78;20920;-85
2022/08/29 08:37:16;;;;;;;13.45;5.05;;;;;;;21.89;65.01;99068.31;2288230;78;20917;-84
2022/08/29 08:40:15;;;;;;;11.57;5.65;;;;;;;22.08;62.25;99076.16;2288106;78;20943;-84
2022/08/29 08:43:17;;;;;;;10.43;5.40;;;;;;;22.20;61.60;99071.80;2289562;78;21344;-85
2022/08/29 08:46:16;;;;;;;10.43;5.20;;;;;;;22.11;61.84;99081.84;2288408;78;21030;-84
2022/08/29 08:49:17;;;;;;;6.60;5.12;;;;;;;21.98;64.97;99074.67;2289158;78;20924;-83
2022/08/29 08:52:17;;;;;;;7.53;4.92;;;;;;;22.43;61.64;99072.84;2289536;78;20955;-84
2022/08/29 08:55:18;;;;;;;8.13;4.62;;;;;;;22.43;62.70;99079.03;2289645;78;20905;-82
2022/08/29 08:58:18;;;;;;;8.45;4.47;;;;;;;22.10;59.33;99075.66;2289726;78;21336;-85
2022/08/29 09:01:19;;;;;;;7.20;4.12;;;;;;;21.89;61.23;99077.61;2290073;78;20931;-85
2022/08/29 09:04:19;;;;;;;111.60;11.08;;;;;;;22.05;61.32;99074.06;2289886;78;20909;-85
2022/08/29 09:07:19;;;;;;;14.33;4.40;;;;;;;22.36;61.37;99076.63;2290001;78;20956;-85
2022/08/29 09:10:20;;;;;;;8.83;3.80;;;;;;;22.51;56.53;99072.13;2290586;78;20986;-87
2022/08/29 09:13:22;;;;;;;7.40;4.05;;;;;;;22.55;58.09;99076.00;2267599;78;20897;-85
2022/08/29 09:16:22;;;;;;;7.53;3.85;;;;;;;22.45;56.67;99073.66;2289923;78;21340;-84
2022/08/29 09:19:23;;;;;;;7.22;4.10;;;;;;;22.67;56.82;99077.39;2290989;78;20884;-85
2022/08/29 09:22:23;;;;;;;7.25;3.98;;;;;;;22.78;57.40;99068.58;2291603;78;21330;-87
2022/08/29 09:25:24;;;;;;;10.05;4.10;;;;;;;22.94;56.30;99069.42;2291212;78;20959;-85
2022/08/29 09:28:25;;;;;;;10.28;3.92;;;;;;;22.87;55.46;99070.09;2290144;78;20920;-84
2022/08/29 09:31:24;;;;;;;8.40;3.85;;;;;;;23.03;55.66;99076.63;2290491;78;20940;-86
2022/08/29 09:34:25;;;;;;;12.13;4.03;;;;;;;23.10;54.30;99074.16;2290510;78;20916;-84
2022/08/29 09:37:25;;;;;;;9.18;3.83;;;;;;;23.24;54.07;99074.13;2289150;78;21039;-86
2022/08/29 09:40:26;;;;;;;7.65;3.80;;;;;;;23.40;52.66;99073.52;2290093;78;20960;-86
2022/08/29 09:43:26;;;;;;;7.35;3.75;;;;;;;23.54;54.10;99067.71;2289756;78;20908;-85
2022/08/29 09:46:26;;;;;;;7.75;3.85;;;;;;;23.51;52.60;99059.38;2280488;78;21029;-84
2022/08/29 09:49:27;;;;;;;11.00;4.08;;;;;;;23.49;53.55;99071.01;2278439;78;21329;-85
2022/08/29 09:52:27;;;;;;;6.50;3.80;;;;;;;23.71;53.22;99063.98;2278414;78;20941;-84
2022/08/29 09:55:28;;;;;;;6.05;3.72;;;;;;;23.80;52.53;99064.97;2279411;78;21349;-85
2022/08/29 09:58:28;;;;;;;8.05;3.77;;;;;;;23.47;53.88;99075.06;2279221;78;20918;-85
2022/08/29 10:01:29;;;;;;;7.90;3.80;;;;;;;23.09;52.09;99076.41;2279609;78;20957;-83
2022/08/29 10:04:29;;;;;;;7.45;4.15;;;;;;;23.03;53.80;99085.07;2279228;78;20961;-85
2022/08/29 10:07:29;;;;;;;6.28;4.08;;;;;;;22.95;54.39;99076.02;2279767;78;20953;-84
2022/08/29 10:10:31;;;;;;;8.13;3.80;;;;;;;22.93;53.33;99063.23;2279752;78;20906;-84
2022/08/29 10:13:32;;;;;;;8.10;3.98;;;;;;;22.87;54.81;99058.12;2280173;77;20962;-86
2022/08/29 10:16:32;;;;;;;7.55;4.58;;;;;;;23.03;54.25;99065.97;2279950;78;21391;-84
2022/08/29 10:19:31;;;;;;;7.10;3.90;;;;;;;23.13;53.21;99069.19;2278553;78;20938;-84
2022/08/29 10:22:31;;;;;;;12.05;3.85;;;;;;;23.19;54.74;99070.30;2279248;77;20926;-83
2022/08/29 10:25:32;;;;;;;8.13;3.95;;;;;;;23.27;52.78;99060.23;2279335;78;20949;-82
2022/08/29 10:28:32;;;;;;;11.45;3.67;;;;;;;23.16;53.34;99058.42;2278954;78;21378;-84
2022/08/29 10:31:33;;;;;;;8.48;3.55;;;;;;;23.49;52.08;99064.34;2280333;78;20993;-85
2022/08/29 10:34:33;;;;;;;4.45;2.95;;;;;;;23.85;52.65;99066.13;2279874;77;20970;-84
2022/08/29 10:37:33;;;;;;;8.68;4.42;;;;;;;24.08;53.00;99053.23;2279503;78;20945;-85
2022/08/29 10:40:34;;;;;;;5.67;3.42;;;;;;;24.41;50.76;99057.73;2279293;78;20941;-85
2022/08/29 10:43:34;;;;;;;7.62;3.92;;;;;;;24.44;50.32;99057.14;2279152;78;20961;-86
2022/08/29 10:46:35;;;;;;;5.37;3.12;;;;;;;24.28;50.32;99053.83;2285897;77;20999;-85
2022/08/29 10:49:35;;;;;;;7.62;3.33;;;;;;;24.19;50.22;99055.47;2288636;78;20920;-83
2022/08/29 10:52:35;;;;;;;9.03;3.20;;;;;;;24.34;50.73;99054.45;2289412;78;21257;-85
2022/08/29 10:55:36;;;;;;;9.33;3.98;;;;;;;24.45;48.88;99049.55;2289902;78;20924;-84
2022/08/29 10:58:36;;;;;;;9.63;3.62;;;;;;;24.26;50.45;99055.16;2289182;78;20967;-85
2022/08/29 11:01:37;;;;;;;6.47;3.30;;;;;;;24.18;49.19;99065.27;2289507;78;20956;-83
2022/08/29 11:04:37;;;;;;;7.03;3.80;;;;;;;24.22;49.26;99060.68;2288820;78;20948;-83
2022/08/29 11:07:37;;;;;;;6.10;3.58;;;;;;;24.33;49.15;99062.05;2289544;78;20969;-84
2022/08/29 11:10:39;;;;;;;6.78;3.62;;;;;;;24.42;48.79;99060.34;2289404;78;20943;-83
2022/08/29 11:13:39;;;;;;;6.80;3.37;;;;;;;24.31;50.78;99053.70;2288387;78;21817;-85
2022/08/29 11:16:39;;;;;;;9.75;3.85;;;;;;;24.47;50.55;99058.81;2289320;78;21698;-84
2022/08/29 11:19:40;;;;;;;7.10;3.77;;;;;;;24.57;49.82;99048.16;2288592;78;20940;-83
2022/08/29 11:22:40;;;;;;;10.50;3.80;;;;;;;24.54;49.42;99046.96;2288201;78;20955;-86
2022/08/29 11:25:43;;;;;;;5.70;3.35;;;;;;;24.46;48.44;99058.41;2265895;78;20928;-83
2022/08/29 11:28:45;;;;;;;6.85;3.50;;;;;;;24.44;49.41;99059.81;2265143;78;20947;-83
2022/08/29 11:31:46;;;;;;;8.95;3.55;;;;;;;24.54;49.26;99055.43;2288961;78;21398;-83
2022/08/29 11:34:50;;;;;;;8.50;3.75;;;;;;;24.74;48.87;99055.47;2287876;78;21033;-83
2022/08/29 11:37:49;;;;;;;10.70;4.50;;;;;;;24.76;49.19;99058.94;2287265;78;20925;-84
2022/08/29 11:40:50;;;;;;;12.20;4.47;;;;;;;24.18;49.81;99072.40;2288293;78;20888;-81
2022/08/29 11:43:52;;;;;;;13.45;4.25;;;;;;;23.82;50.90;99070.23;2287684;78;21019;-84
2022/08/29 11:46:51;;;;;;;9.53;3.98;;;;;;;23.61;50.65;99070.59;2280053;78;21065;-82
2022/08/29 11:49:52;;;;;;;7.85;3.95;;;;;;;23.71;49.45;99069.78;2277163;78;21346;-83
2022/08/29 11:52:52;;;;;;;7.55;3.80;;;;;;;23.87;49.90;99061.60;2277816;78;21357;-83
2022/08/29 11:55:53;;;;;;;8.75;3.98;;;;;;;24.14;49.82;99064.52;2279140;78;20985;-80
2022/08/29 11:58:53;;;;;;;6.67;3.42;;;;;;;24.38;50.60;99064.53;2278771;78;20957;-86
2022/08/29 12:01:53;;;;;;;5.95;3.77;;;;;;;24.68;48.91;99067.27;2278459;78;21270;-83
2022/08/29 12:04:54;;;;;;;8.25;3.85;;;;;;;24.38;47.88;99072.53;2278543;78;20883;-82
2022/08/29 12:07:57;;;;;;;5.78;2.92;;;;;;;24.37;48.68;99068.12;2277874;78;20929;-83
2022/08/29 12:10:58;;;;;;;6.60;3.60;;;;;;;24.53;48.47;99054.56;2277307;78;20942;-83
2022/08/29 12:13:58;;;;;;;7.20;3.65;;;;;;;24.76;47.75;99056.27;2277446;78;20957;-80
2022/08/29 12:17:01;;;;;;;7.53;3.77;;;;;;;24.95;46.61;99055.88;2276872;78;20962;-80
2022/08/29 12:19:59;;;;;;;6.25;3.62;;;;;;;25.16;46.71;99062.16;2277572;78;20969;-80
2022/08/29 12:23:00;;;;;;;9.20;3.67;;;;;;;24.87;47.26;99067.83;2277198;78;20918;-85
2022/08/29 12:26:01;;;;;;;9.20;3.55;;;;;;;24.61;47.52;99063.58;2277235;78;20918;-82
2022/08/29 12:29:00;;;;;;;7.80;3.62;;;;;;;24.55;47.57;99067.38;2276481;78;21278;-80
2022/08/29 12:32:00;;;;;;;5.75;3.30;;;;;;;24.51;47.66;99062.23;2276187;78;20958;-84
2022/08/29 12:35:01;;;;;;;6.17;3.47;;;;;;;24.78;47.73;99061.08;2277196;78;20953;-85
2022/08/29 12:38:01;;;;;;;9.23;3.62;;;;;;;25.13;46.99;99058.25;2278219;78;20957;-83
2022/08/29 12:41:02;;;;;;;6.90;3.05;;;;;;;25.39;45.98;99055.32;2278166;78;20961;-83
2022/08/29 12:44:02;;;;;;;8.95;3.15;;;;;;;25.61;45.92;99049.87;2279062;78;20965;-83
2022/08/29 12:47:03;;;;;;;7.72;3.62;;;;;;;25.65;43.57;99047.92;2286391;77;20991;-82
2022/08/29 12:50:03;;;;;;;39.73;22.80;;;;;;;25.74;43.87;99046.66;2289836;78;23172;-81
2022/08/29 12:53:03;;;;;;;7.47;4.90;;;;;;;25.82;44.22;99045.83;2289576;78;20924;-84
2022/08/29 12:56:04;;;;;;;3.80;2.83;;;;;;;25.96;42.74;99058.95;2288825;78;20979;-85
2022/08/29 12:59:04;;;;;;;7.45;3.10;;;;;;;25.98;43.24;99053.05;2288911;78;20960;-82
2022/08/29 13:02:05;;;;;;;4.08;3.02;;;;;;;25.98;42.86;99061.55;2288864;78;21559;-84
2022/08/29 13:05:05;;;;;;;7.75;3.70;;;;;;;25.94;43.46;99055.48;2289435;78;20971;-84
2022/08/29 13:08:08;;;;;;;8.00;3.67;;;;;;;26.06;43.44;99051.39;2289592;78;20928;-82
2022/08/29 13:11:09;;;;;;;7.72;4.12;;;;;;;26.02;42.83;99049.33;2289104;78;20960;-81
2022/08/29 13:14:09;;;;;;;9.03;3.70;;;;;;;25.94;43.54;99055.48;2288827;78;20912;-84
2022/08/29 13:17:10;;;;;;;7.67;3.37;;;;;;;25.68;42.61;99059.84;2288430;78;21072;-83
2022/08/29 13:20:10;;;;;;;5.12;3.83;;;;;;;25.02;44.00;99059.19;2287259;78;20970;-83
2022/08/29 13:23:10;;;;;;;5.53;3.35;;;;;;;24.56;45.06;99062.44;2287674;78;20943;-83
2022/08/29 13:26:11;;;;;;;10.50;3.80;;;;;;;24.17;46.39;99069.33;2287776;78;20951;-84
2022/08/29 13:29:11;;;;;;;6.03;3.37;;;;;;;24.11;46.65;99064.64;2287884;78;20911;-82
2022/08/29 13:32:12;;;;;;;6.00;3.45;;;;;;;23.92;47.31;99059.62;2287573;78;20971;-81
2022/08/29 13:35:12;;;;;;;6.53;3.20;;;;;;;23.90;47.75;99058.81;2287680;78;20905;-83
2022/08/29 13:38:12;;;;;;;6.00;3.22;;;;;;;23.87;47.12;99062.94;2287652;78;21341;-82
2022/08/29 13:41:13;;;;;;;8.08;3.35;;;;;;;23.79;47.25;99062.36;2289081;78;21304;-83
2022/08/29 13:44:13;;;;;;;6.70;3.70;;;;;;;23.89;46.34;99054.41;2288740;78;20955;-83
2022/08/29 13:47:14;;;;;;;7.67;3.20;;;;;;;23.88;45.87;99056.67;2281956;78;20970;-84
2022/08/29 13:50:14;;;;;;;5.22;3.65;;;;;;;23.86;46.98;99051.87;2278651;78;21310;-84
2022/08/29 13:53:14;;;;;;;4.55;3.08;;;;;;;23.97;45.72;99058.11;2278916;78;20973;-83
2022/08/29 13:56:15;;;;;;;7.55;3.75;;;;;;;24.00;44.92;99060.20;2279135;78;20926;-85